createdAt,value
2018-02-19T00:01:25.186Z,33.20
2018-02-19T00:03:52.660Z,37.20
2018-02-19T00:06:20.145Z,34.90
2018-02-19T00:08:47.722Z,32.17
2018-02-19T00:11:15.205Z,35.40
2018-02-19T00:13:43.438Z,35.10
2018-02-19T00:16:10.933Z,34.67
2018-02-19T00:18:39.175Z,31.30
2018-02-19T00:21:06.670Z,29.37
2018-02-19T00:23:34.929Z,26.43
2018-02-19T00:26:02.430Z,28.10
2018-02-19T00:28:29.918Z,27.37
2018-02-19T00:30:57.410Z,28.97
2018-02-19T00:33:24.878Z,29.83
2018-02-19T00:35:52.433Z,28.83
2018-02-19T00:38:19.920Z,28.60
2018-02-19T00:40:47.420Z,28.63
2018-02-19T00:43:15.246Z,27.07
2018-02-19T00:45:42.735Z,28.53
2018-02-19T00:48:10.250Z,28.63
2018-02-19T00:50:38.491Z,31.40
2018-02-19T00:53:05.991Z,32.23
2018-02-19T00:55:33.502Z,36.03
2018-02-19T00:58:01.014Z,30.53
2018-02-19T01:00:29.250Z,35.20
2018-02-19T01:02:56.733Z,31.73
2018-02-19T01:05:24.974Z,31.33
2018-02-19T01:07:52.495Z,30.87
2018-02-19T01:10:19.974Z,32.70
2018-02-19T01:12:47.429Z,30.90
2018-02-19T01:15:14.962Z,30.60
2018-02-19T01:17:42.508Z,29.80
2018-02-19T01:20:10.804Z,29.40
2018-02-19T01:22:38.414Z,33.70
2018-02-19T01:25:05.954Z,30.53
2018-02-19T01:27:33.434Z,30.43
2018-02-19T01:30:00.979Z,29.63
2018-02-19T01:32:28.453Z,35.10
2018-02-19T01:34:55.976Z,29.17
2018-02-19T01:37:23.455Z,32.13
2018-02-19T01:39:50.970Z,27.90
2018-02-19T01:42:19.250Z,31.10
2018-02-19T01:44:46.742Z,30.57
2018-02-19T01:47:14.268Z,32.23
2018-02-19T01:52:48.255Z,33.43
2018-02-19T01:55:15.746Z,32.67
2018-02-19T01:57:43.995Z,34.67
2018-02-19T02:00:12.321Z,33.80
2018-02-19T02:02:39.823Z,31.77
2018-02-19T02:05:07.299Z,29.97
2018-02-19T02:07:35.555Z,32.20
2018-02-19T02:10:03.054Z,32.77
2018-02-19T02:12:30.588Z,34.03
2018-02-19T02:14:58.059Z,31.97
2018-02-19T02:17:26.326Z,30.83
2018-02-19T02:19:53.801Z,34.10
2018-02-19T02:22:22.063Z,32.17
2018-02-19T02:24:49.550Z,32.00
2018-02-19T02:27:17.040Z,31.10
2018-02-19T02:29:44.530Z,31.47
2018-02-19T02:32:12.020Z,32.63
2018-02-19T02:34:40.305Z,30.47
2018-02-19T02:37:07.814Z,33.20
2018-02-19T02:39:35.344Z,31.20
2018-02-19T02:42:02.854Z,31.47
2018-02-19T02:44:30.340Z,29.63
2018-02-19T02:46:57.835Z,33.23
2018-02-19T02:49:25.324Z,31.80
2018-02-19T02:51:52.820Z,31.07
2018-02-19T02:54:20.319Z,30.93
2018-02-19T02:56:47.810Z,33.50
2018-02-19T02:59:16.076Z,32.67
2018-02-19T03:01:43.561Z,34.87
2018-02-19T03:04:11.821Z,34.07
2018-02-19T03:06:39.314Z,36.13
2018-02-19T03:09:06.797Z,37.40
2018-02-19T03:11:34.290Z,37.00
2018-02-19T03:14:02.570Z,34.40
2018-02-19T03:16:30.050Z,36.03
2018-02-19T03:18:58.302Z,37.80
2018-02-19T03:21:25.950Z,35.30
2018-02-19T03:23:53.419Z,35.97
2018-02-19T03:26:20.926Z,34.97
2018-02-19T03:28:48.427Z,38.40
2018-02-19T03:31:15.916Z,36.97
2018-02-19T03:33:44.165Z,34.10
2018-02-19T03:36:11.709Z,36.87
2018-02-19T03:38:39.186Z,34.60
2018-02-19T03:41:06.693Z,34.60
2018-02-19T03:43:34.192Z,33.47
2018-02-19T03:46:01.709Z,36.37
2018-02-19T03:48:29.180Z,37.10
2018-02-19T03:50:56.682Z,37.70
2018-02-19T03:53:24.167Z,37.17
2018-02-19T03:55:52.449Z,34.07
2018-02-19T03:58:19.922Z,32.33
2018-02-19T04:00:47.431Z,34.30
2018-02-19T04:03:14.940Z,39.00
2018-02-19T04:05:42.434Z,34.80
2018-02-19T04:08:09.939Z,32.77
2018-02-19T04:10:38.208Z,32.03
2018-02-19T04:13:05.683Z,33.73
2018-02-19T04:15:33.769Z,36.10
2018-02-19T04:18:01.262Z,36.20
2018-02-19T04:20:28.759Z,36.17
2018-02-19T04:22:57.029Z,33.47
2018-02-19T04:25:24.514Z,36.00
2018-02-19T04:27:51.998Z,33.43
2018-02-19T04:30:19.566Z,32.97
2018-02-19T04:32:47.061Z,31.67
2018-02-19T04:35:14.552Z,35.40
2018-02-19T04:37:42.123Z,34.83
2018-02-19T04:40:09.604Z,32.67
2018-02-19T04:42:37.101Z,32.47
2018-02-19T04:45:23.890Z,31.90
2018-02-19T04:47:51.410Z,31.30
2018-02-19T04:50:18.902Z,30.20
2018-02-19T04:52:46.375Z,32.90
2018-02-19T04:55:13.881Z,30.63
2018-02-19T04:57:41.543Z,33.10
2018-02-19T05:00:09.085Z,31.37
2018-02-19T05:02:37.370Z,32.47
2018-02-19T05:05:04.858Z,32.43
2018-02-19T05:07:32.358Z,36.90
2018-02-19T05:09:59.856Z,33.60
2018-02-19T05:12:27.334Z,33.07
2018-02-19T05:14:54.843Z,32.83
2018-02-19T05:17:22.327Z,33.50
2018-02-19T05:19:49.856Z,31.40
2018-02-19T05:22:17.367Z,30.33
2018-02-19T05:24:45.234Z,33.67
2018-02-19T05:27:12.759Z,30.10
2018-02-19T05:29:41.034Z,31.90
2018-02-19T05:32:09.311Z,29.10
2018-02-19T05:34:36.790Z,28.53
2018-02-19T05:37:04.291Z,28.57
2018-02-19T05:39:31.761Z,27.47
2018-02-19T05:41:59.324Z,27.77
2018-02-19T05:44:26.800Z,30.77
2018-02-19T05:46:55.095Z,26.60
2018-02-19T05:49:23.351Z,28.03
2018-02-19T05:51:50.896Z,29.07
2018-02-19T05:54:18.387Z,28.37
2018-02-19T05:56:45.882Z,26.63
2018-02-19T05:59:13.395Z,28.10
2018-02-19T06:01:41.666Z,28.27
2018-02-19T06:04:09.142Z,26.60
2018-02-19T06:06:37.399Z,28.47
2018-02-19T06:09:05.656Z,28.30
2018-02-19T06:11:33.131Z,29.37
2018-02-19T06:14:00.622Z,30.40
2018-02-19T06:16:28.101Z,29.93
2018-02-19T06:18:55.608Z,28.00
2018-02-19T06:21:23.076Z,29.83
2018-02-19T06:23:51.328Z,28.17
2018-02-19T06:26:19.002Z,31.00
2018-02-19T06:28:46.716Z,29.70
2018-02-19T06:31:14.234Z,30.60
2018-02-19T06:33:42.538Z,30.00
2018-02-19T06:36:10.023Z,31.93
2018-02-19T06:38:37.513Z,29.17
2018-02-19T06:41:05.019Z,31.63
2018-02-19T06:43:32.532Z,30.20
2018-02-19T06:46:00.019Z,30.63
2018-02-19T06:48:28.314Z,30.67
2018-02-19T06:50:55.796Z,32.40
2018-02-19T06:53:23.294Z,34.57
2018-02-19T06:55:51.532Z,33.73
2018-02-19T06:58:19.022Z,31.67
2018-02-19T07:00:46.522Z,32.23
2018-02-19T07:03:14.020Z,28.10
2018-02-19T07:05:41.516Z,28.70
2018-02-19T07:08:09.772Z,29.17
2018-02-19T07:10:37.305Z,29.00
2018-02-19T07:13:04.831Z,27.33
2018-02-19T07:15:32.732Z,29.27
2018-02-19T07:18:01.187Z,31.43
2018-02-19T07:20:30.541Z,26.87
2018-02-19T07:22:58.027Z,30.20
2018-02-19T07:25:26.377Z,29.50
2018-02-19T07:27:53.859Z,27.60
2018-02-19T07:30:22.120Z,29.80
2018-02-19T07:32:49.633Z,27.03
2018-02-19T07:35:17.146Z,35.73
2018-02-19T07:37:44.643Z,29.00
2018-02-19T07:40:12.127Z,29.33
2018-02-19T07:42:39.614Z,33.53
2018-02-19T07:45:07.109Z,31.90
2018-02-19T07:47:34.612Z,28.93
2018-02-19T07:50:02.110Z,30.17
2018-02-19T07:52:30.372Z,31.00
2018-02-19T07:54:57.848Z,31.40
2018-02-19T07:57:26.110Z,29.73
2018-02-19T07:59:53.624Z,28.73
2018-02-19T08:02:21.127Z,27.67
2018-02-19T08:04:48.618Z,29.23
2018-02-19T08:07:16.158Z,30.10
2018-02-19T08:09:44.423Z,29.07
2018-02-19T08:12:11.996Z,27.77
2018-02-19T08:14:40.264Z,28.57
2018-02-19T08:17:07.758Z,30.40
2018-02-19T08:19:35.247Z,27.67
2018-02-19T08:22:03.533Z,28.20
2018-02-19T08:24:32.066Z,30.93
2018-02-19T08:26:59.572Z,31.30
2018-02-19T08:29:27.822Z,28.47
2018-02-19T08:31:55.329Z,29.03
2018-02-19T08:34:22.847Z,29.00
2018-02-19T08:36:50.374Z,30.23
2018-02-19T08:39:18.664Z,28.33
2018-02-19T08:41:46.163Z,28.53
2018-02-19T08:44:13.669Z,28.90
2018-02-19T08:46:45.057Z,28.60
2018-02-19T08:49:12.581Z,28.33
2018-02-19T08:51:40.858Z,27.10
2018-02-19T08:54:08.345Z,28.20
2018-02-19T08:56:35.983Z,24.67
2018-02-19T08:59:03.495Z,27.93
2018-02-19T09:01:31.001Z,26.93
2018-02-19T09:03:59.241Z,26.17
2018-02-19T09:06:26.746Z,26.70
2018-02-19T09:08:54.227Z,26.50
2018-02-19T09:11:22.253Z,27.20
2018-02-19T09:13:50.522Z,27.67
2018-02-19T09:16:18.802Z,28.13
2018-02-19T09:18:47.078Z,27.10
2018-02-19T09:21:15.355Z,25.33
2018-02-19T09:23:42.874Z,28.73
2018-02-19T09:26:10.382Z,26.63
2018-02-19T09:28:38.616Z,26.40
2018-02-19T09:31:06.257Z,29.27
2018-02-19T09:33:33.837Z,26.73
2018-02-19T09:36:01.394Z,27.20
2018-02-19T09:38:28.894Z,26.80
2018-02-19T09:40:57.467Z,29.20
2018-02-19T09:43:24.980Z,26.70
2018-02-19T09:45:52.471Z,27.20
2018-02-19T09:48:19.957Z,26.50
2018-02-19T09:50:48.204Z,24.60
2018-02-19T09:53:15.730Z,27.67
2018-02-19T09:55:43.209Z,26.77
2018-02-19T09:58:10.727Z,24.60
2018-02-19T10:00:38.234Z,24.60
2018-02-19T10:03:05.742Z,26.97
2018-02-19T10:05:34.078Z,27.50
2018-02-19T10:08:01.598Z,27.10
2018-02-19T10:10:29.076Z,26.80
2018-02-19T10:12:56.550Z,26.47
2018-02-19T10:15:24.093Z,28.87
2018-02-19T10:17:51.551Z,30.43
2018-02-19T10:20:19.110Z,27.50
2018-02-19T10:22:46.619Z,29.07
2018-02-19T10:25:14.114Z,26.10
2018-02-19T10:27:41.595Z,26.77
2018-02-19T10:30:09.102Z,26.20
2018-02-19T10:32:37.412Z,30.63
2018-02-19T10:35:04.958Z,29.30
2018-02-19T10:37:32.434Z,28.07
2018-02-19T10:39:59.932Z,26.93
2018-02-19T10:42:27.436Z,26.50
2018-02-19T10:44:55.705Z,24.90
2018-02-19T10:47:23.963Z,28.80
2018-02-19T10:49:51.454Z,28.43
2018-02-19T10:52:18.967Z,26.77
2018-02-19T10:54:46.462Z,28.30
2018-02-19T10:57:14.725Z,28.27
2018-02-19T10:59:43.015Z,25.80
2018-02-19T11:02:11.325Z,28.60
2018-02-19T11:04:38.795Z,26.90
2018-02-19T11:07:06.288Z,29.80
2018-02-19T11:09:33.771Z,29.47
2018-02-19T11:12:02.050Z,30.17
2018-02-19T11:14:30.603Z,29.30
2018-02-19T11:16:58.874Z,30.90
2018-02-19T11:19:26.374Z,29.67
2018-02-19T11:21:53.911Z,28.90
2018-02-19T11:24:22.173Z,26.33
2018-02-19T11:26:49.651Z,29.47
2018-02-19T11:29:17.914Z,25.47
2018-02-19T11:31:45.411Z,28.13
2018-02-19T11:34:12.902Z,27.93
2018-02-19T11:36:40.485Z,27.83
2018-02-19T11:39:07.968Z,27.80
2018-02-19T11:41:36.247Z,27.50
2018-02-19T11:44:04.531Z,26.73
2018-02-19T11:46:32.796Z,25.97
2018-02-19T11:49:01.054Z,27.00
2018-02-19T11:51:28.559Z,28.37
2018-02-19T11:53:56.063Z,27.23
2018-02-19T11:56:23.576Z,27.70
2018-02-19T11:58:51.151Z,27.60
2018-02-19T12:01:18.616Z,27.63
2018-02-19T12:03:46.147Z,27.33
2018-02-19T12:06:13.655Z,26.77
2018-02-19T12:08:41.142Z,26.60
2018-02-19T12:11:08.647Z,25.53
2018-02-19T12:13:36.159Z,27.63
2018-02-19T12:16:04.414Z,26.57
2018-02-19T12:18:31.914Z,27.80
2018-02-19T12:20:59.438Z,25.57
2018-02-19T12:23:26.934Z,27.73
2018-02-19T12:25:54.427Z,29.53
2018-02-19T12:28:21.958Z,26.57
2018-02-19T12:30:49.438Z,27.90
2018-02-19T12:33:21.928Z,26.83
2018-02-19T12:35:49.403Z,28.97
2018-02-19T12:38:16.938Z,28.00
2018-02-19T12:40:44.422Z,27.60
2018-02-19T12:43:11.927Z,26.40
2018-02-19T12:45:39.408Z,26.27
2018-02-19T12:48:06.904Z,26.43
2018-02-19T12:50:34.391Z,27.90
2018-02-19T12:53:02.624Z,26.37
2018-02-19T12:55:30.114Z,32.87
2018-02-19T12:57:58.468Z,30.27
2018-02-19T13:00:26.002Z,29.20
2018-02-19T13:02:53.492Z,29.17
2018-02-19T13:05:21.014Z,28.83
2018-02-19T13:07:48.504Z,28.73
2018-02-19T13:10:16.098Z,30.00
2018-02-19T13:12:44.338Z,28.67
2018-02-19T13:15:12.300Z,27.60
2018-02-19T13:17:40.627Z,26.70
2018-02-19T13:20:08.988Z,28.97
2018-02-19T13:22:36.539Z,28.40
2018-02-19T13:25:04.026Z,28.67
2018-02-19T13:27:31.530Z,28.23
2018-02-19T13:29:59.014Z,25.53
2018-02-19T13:32:26.537Z,26.00
2018-02-19T13:34:54.011Z,27.67
2018-02-19T13:37:21.605Z,29.87
2018-02-19T13:39:49.097Z,30.40
2018-02-19T13:42:16.596Z,30.50
2018-02-19T13:44:44.090Z,28.23
2018-02-19T13:47:12.542Z,27.60
2018-02-19T13:49:40.250Z,26.73
2018-02-19T13:52:08.512Z,26.47
2018-02-19T13:54:36.770Z,28.10
2018-02-19T13:57:05.252Z,28.67
2018-02-19T13:59:33.712Z,28.50
2018-02-19T14:02:01.196Z,27.47
2018-02-19T14:04:28.747Z,28.00
2018-02-19T14:06:56.246Z,26.50
2018-02-19T14:09:24.542Z,26.77
2018-02-19T14:11:52.050Z,29.43
2018-02-19T14:14:19.836Z,26.60
2018-02-19T14:16:47.595Z,27.93
2018-02-19T14:19:15.085Z,28.07
2018-02-19T14:21:42.618Z,26.73
2018-02-19T14:24:10.126Z,28.13
2018-02-19T14:26:37.628Z,27.00
2018-02-19T14:29:05.148Z,26.30
2018-02-19T14:31:32.769Z,28.13
2018-02-19T14:34:03.267Z,28.57
2018-02-19T14:36:30.737Z,30.63
2018-02-19T14:38:58.232Z,28.57
2018-02-19T14:41:25.773Z,27.07
2018-02-19T14:43:54.047Z,29.50
2018-02-19T14:46:22.383Z,28.23
2018-02-19T14:48:49.895Z,28.00
2018-02-19T14:51:17.416Z,29.83
2018-02-19T14:53:44.870Z,26.20
2018-02-19T14:56:12.534Z,27.50
2018-02-19T14:58:40.039Z,28.30
2018-02-19T15:01:07.586Z,27.60
2018-02-19T15:03:35.886Z,27.23
2018-02-19T15:06:03.367Z,28.97
2018-02-19T15:10:58.863Z,27.23
2018-02-19T15:13:27.138Z,27.83
2018-02-19T15:15:55.389Z,27.13
2018-02-19T15:18:22.891Z,26.60
2018-02-19T15:20:50.385Z,26.60
2018-02-19T15:23:17.885Z,27.10
2018-02-19T15:25:45.374Z,26.87
2018-02-19T15:28:12.888Z,27.03
2018-02-19T15:30:40.377Z,27.90
2018-02-19T15:33:07.879Z,24.27
2018-02-19T15:35:35.394Z,28.17
2018-02-19T15:38:03.687Z,27.03
2018-02-19T15:40:31.196Z,27.00
2018-02-19T15:42:58.710Z,25.03
2018-02-19T15:45:26.210Z,26.57
2018-02-19T15:47:53.711Z,28.40
2018-02-19T15:50:21.240Z,23.70
2018-02-19T15:52:49.498Z,23.00
2018-02-19T15:55:16.997Z,25.43
2018-02-19T15:57:45.263Z,27.27
2018-02-19T16:00:13.611Z,24.93
2018-02-19T16:02:41.119Z,25.87
2018-02-19T16:05:09.381Z,27.07
2018-02-19T16:07:37.719Z,25.20
2018-02-19T16:10:05.223Z,24.50
2018-02-19T16:12:32.714Z,24.70
2018-02-19T16:15:00.267Z,25.63
2018-02-19T16:17:27.849Z,24.27
2018-02-19T16:19:55.690Z,24.47
2018-02-19T16:22:23.193Z,27.37
2018-02-19T16:24:50.702Z,25.10
2018-02-19T16:27:18.197Z,23.43
2018-02-19T16:29:45.698Z,24.53
2018-02-19T16:32:13.951Z,26.57
2018-02-19T16:34:41.516Z,24.57
2018-02-19T16:37:09.003Z,27.13
2018-02-19T16:39:39.200Z,27.20
2018-02-19T16:42:08.686Z,26.80
2018-02-19T16:44:36.583Z,27.00
2018-02-19T16:47:04.092Z,28.70
2018-02-19T16:49:31.635Z,30.53
2018-02-19T16:51:59.118Z,31.03
2018-02-19T16:54:26.636Z,27.03
2018-02-19T16:56:54.171Z,26.00
2018-02-19T16:59:21.649Z,26.43
2018-02-19T17:01:49.159Z,27.53
2018-02-19T17:04:16.709Z,25.80
2018-02-19T17:06:44.214Z,26.57
2018-02-19T17:09:12.505Z,28.50
2018-02-19T17:11:40.778Z,25.40
2018-02-19T17:14:09.093Z,26.03
2018-02-19T17:16:36.615Z,30.43
2018-02-19T17:19:05.009Z,29.70
2018-02-19T17:21:32.516Z,26.37
2018-02-19T17:24:00.006Z,26.87
2018-02-19T17:26:27.543Z,28.00
2018-02-19T17:28:55.023Z,27.43
2018-02-19T17:31:22.510Z,27.73
2018-02-19T17:33:50.772Z,28.20
2018-02-19T17:36:18.271Z,29.80
2018-02-19T17:38:45.804Z,26.63
2018-02-19T17:41:13.330Z,28.90
2018-02-19T17:43:40.847Z,29.90
2018-02-19T17:46:08.347Z,27.47
2018-02-19T17:48:35.856Z,26.60
2018-02-19T17:51:03.403Z,28.97
2018-02-19T17:53:30.918Z,26.93
2018-02-19T17:55:58.541Z,27.40
2018-02-19T17:58:26.031Z,27.70
2018-02-19T18:00:53.597Z,25.67
2018-02-19T18:03:21.103Z,26.67
2018-02-19T18:05:48.595Z,24.43
2018-02-19T18:08:16.064Z,28.43
2018-02-19T18:10:43.566Z,25.50
2018-02-19T18:13:11.828Z,26.93
2018-02-19T18:15:39.330Z,26.27
2018-02-19T18:18:06.810Z,26.77
2018-02-19T18:20:34.331Z,26.17
2018-02-19T18:23:01.850Z,24.40
2018-02-19T18:25:29.338Z,27.13
2018-02-19T18:27:57.692Z,25.50
2018-02-19T18:30:25.219Z,27.03
2018-02-19T18:32:53.011Z,27.00
2018-02-19T18:35:20.582Z,27.27
2018-02-19T18:37:48.079Z,24.67
2018-02-19T18:40:16.346Z,25.40
2018-02-19T18:42:44.640Z,26.70
2018-02-19T18:45:12.683Z,24.93
2018-02-19T18:47:40.189Z,27.20
2018-02-19T18:50:07.714Z,24.77
2018-02-19T18:52:35.990Z,27.77
2018-02-19T18:55:04.158Z,25.97
2018-02-19T18:57:32.910Z,27.47
2018-02-19T19:00:00.402Z,29.03
2018-02-19T19:02:29.733Z,26.43
2018-02-19T19:04:57.220Z,27.20
2018-02-19T19:07:36.477Z,29.73
2018-02-19T19:10:15.715Z,27.43
2018-02-19T19:12:43.203Z,26.77
2018-02-19T19:15:10.749Z,28.17
2018-02-19T19:17:38.251Z,27.00
2018-02-19T19:20:05.756Z,29.03
2018-02-19T19:22:33.287Z,29.87
2018-02-19T19:25:00.930Z,29.33
2018-02-19T19:27:28.534Z,29.20
2018-02-19T19:29:56.044Z,30.87
2018-02-19T19:32:23.547Z,34.90
2018-02-19T19:34:51.033Z,29.20
2018-02-19T19:37:19.286Z,33.50
2018-02-19T19:39:46.805Z,34.50
2018-02-19T19:42:14.502Z,30.10
2018-02-19T19:44:41.992Z,29.80
2018-02-19T19:47:10.250Z,30.13
2018-02-19T19:49:37.762Z,33.93
2018-02-19T19:52:05.243Z,32.07
2018-02-19T19:54:32.747Z,32.10
2018-02-19T19:57:01.037Z,30.73
2018-02-19T19:59:29.287Z,32.07
2018-02-19T20:01:57.842Z,34.50
2018-02-19T20:04:25.807Z,32.70
2018-02-19T20:06:53.372Z,34.40
2018-02-19T20:09:20.888Z,35.57
2018-02-19T20:11:50.304Z,31.57
2018-02-19T20:14:17.826Z,31.83
2018-02-19T20:16:45.412Z,31.50
2018-02-19T20:19:13.255Z,33.03
2018-02-19T20:21:40.810Z,34.43
2018-02-19T20:24:08.293Z,32.47
2018-02-19T20:26:35.783Z,33.27
2018-02-19T20:29:03.299Z,31.37
2018-02-19T20:31:31.879Z,31.67
2018-02-19T20:34:00.217Z,31.73
2018-02-19T20:36:28.569Z,30.27
2018-02-19T20:38:56.065Z,30.10
2018-02-19T20:41:23.542Z,27.10
2018-02-19T20:43:51.108Z,28.63
2018-02-19T20:46:18.613Z,31.13
2018-02-19T20:48:46.772Z,29.17
2018-02-19T20:51:14.264Z,27.57
2018-02-19T20:53:41.775Z,27.40
2018-02-19T20:56:10.100Z,30.43
2018-02-19T20:58:37.771Z,30.17
2018-02-19T21:01:05.258Z,29.43
2018-02-19T21:03:32.786Z,29.73
2018-02-19T21:06:01.064Z,27.57
2018-02-19T21:08:28.575Z,32.27
2018-02-19T21:10:56.839Z,32.50
2018-02-19T21:13:24.321Z,34.63
2018-02-19T21:15:52.599Z,27.00
2018-02-19T21:18:20.077Z,28.03
2018-02-19T21:20:47.577Z,26.10
2018-02-19T21:23:15.082Z,27.17
2018-02-19T21:25:42.614Z,28.30
2018-02-19T21:28:10.119Z,25.17
2018-02-19T21:30:37.743Z,25.30
2018-02-19T21:33:05.245Z,29.00
2018-02-19T21:35:33.359Z,27.53
2018-02-19T21:38:00.891Z,27.77
2018-02-19T21:40:28.377Z,30.50
2018-02-19T21:42:55.870Z,30.10
2018-02-19T21:45:23.338Z,30.47
2018-02-19T21:47:50.891Z,29.40
2018-02-19T21:50:19.159Z,28.23
2018-02-19T21:52:47.425Z,26.50
2018-02-19T21:55:15.668Z,30.57
2018-02-19T21:57:43.162Z,28.73
2018-02-19T22:00:11.421Z,31.60
2018-02-19T22:02:38.903Z,29.03
2018-02-19T22:05:07.173Z,27.67
2018-02-19T22:07:35.528Z,26.37
2018-02-19T22:10:03.029Z,26.50
2018-02-19T22:12:31.289Z,29.27
2018-02-19T22:14:59.558Z,26.80
2018-02-19T22:17:27.045Z,26.90
2018-02-19T22:19:54.531Z,28.60
2018-02-19T22:22:22.180Z,29.57
2018-02-19T22:24:50.248Z,29.40
2018-02-19T22:27:17.732Z,29.40
2018-02-19T22:29:45.226Z,30.33
2018-02-19T22:32:13.976Z,30.70
2018-02-19T22:34:41.473Z,28.97
2018-02-19T22:37:08.979Z,29.30
2018-02-19T22:39:36.497Z,31.93
2018-02-19T22:42:04.983Z,28.83
2018-02-19T22:44:32.433Z,31.50
2018-02-19T22:46:59.912Z,27.73
2018-02-19T22:49:27.401Z,28.60
2018-02-19T22:51:55.203Z,29.73
2018-02-19T22:54:22.680Z,29.80
2018-02-19T22:56:50.927Z,29.50
2018-02-19T22:59:18.405Z,30.67
2018-02-19T23:01:45.890Z,32.53
2018-02-19T23:04:13.400Z,33.17
2018-02-19T23:06:40.897Z,30.37
2018-02-19T23:09:09.153Z,29.53
2018-02-19T23:11:36.658Z,32.13
2018-02-19T23:14:04.149Z,33.10
2018-02-19T23:16:31.663Z,31.70
2018-02-19T23:18:59.294Z,39.27
2018-02-19T23:21:26.782Z,32.17
2018-02-19T23:23:54.275Z,33.00
2018-02-19T23:26:21.766Z,33.60
2018-02-19T23:28:49.262Z,31.40
2018-02-19T23:31:16.731Z,30.03
2018-02-19T23:33:44.228Z,32.17
2018-02-19T23:36:11.712Z,31.60
2018-02-19T23:38:39.219Z,30.60
2018-02-19T23:41:06.717Z,36.50
2018-02-19T23:43:34.198Z,33.77
2018-02-19T23:46:02.443Z,32.23
2018-02-19T23:48:29.940Z,34.07
2018-02-19T23:50:57.415Z,34.87
2018-02-19T23:53:24.886Z,34.90
2018-02-19T23:55:52.376Z,35.70
2018-02-19T23:58:19.854Z,34.53
